Time;durP1;ratioP1;P1;durP2;ratioP2;P2;SDS_P1;SDS_P2;PMS_P1;PMS_P2;Temp;Humidity;BMP_temperature;BMP_pressure;BME280_temperature;BME280_humidity;BME280_pressure;Samples;Min_cycle;Max_cycle;Signal;HPM_P1;HPM_P2
2022/10/21 00:02:04;;;;;;;16.90;15.63;;;;;;;;;;4996013;28;20035;-64
2022/10/21 00:04:31;;;;;;;18.75;17.45;;;;;;;;;;4996210;28;20121;-63
2022/10/21 00:06:57;;;;;;;17.38;16.27;;;;;;;;;;4995496;28;20042;-64
2022/10/21 00:09:22;;;;;;;17.50;16.40;;;;;;;;;;4996298;28;20074;-64
2022/10/21 00:11:48;;;;;;;15.95;14.85;;;;;;;;;;4995980;28;20065;-64
2022/10/21 00:14:13;;;;;;;16.58;15.52;;;;;;;;;;4991745;28;20060;-64
2022/10/21 00:16:38;;;;;;;15.82;14.82;;;;;;;;;;4995182;28;20102;-64
2022/10/21 00:19:04;;;;;;;13.77;12.88;;;;;;;;;;4994961;28;20029;-64
2022/10/21 00:21:29;;;;;;;15.15;14.05;;;;;;;;;;4997415;28;20030;-65
2022/10/21 00:23:54;;;;;;;16.40;15.32;;;;;;;;;;4996522;28;20404;-65
2022/10/21 00:26:20;;;;;;;15.50;14.40;;;;;;;;;;4995813;28;20045;-65
2022/10/21 00:28:46;;;;;;;15.70;14.52;;;;;;;;;;4993486;28;20041;-65
2022/10/21 00:31:13;;;;;;;15.20;14.18;;;;;;;;;;4997953;28;20440;-65
2022/10/21 00:33:39;;;;;;;15.52;14.50;;;;;;;;;;4995069;28;20033;-66
2022/10/21 00:36:06;;;;;;;14.27;13.38;;;;;;;;;;4992664;28;20041;-65
2022/10/21 00:38:32;;;;;;;16.58;15.32;;;;;;;;;;4997875;28;20022;-68
2022/10/21 00:40:59;;;;;;;14.20;13.30;;;;;;;;;;4994236;28;20068;-66
2022/10/21 00:43:25;;;;;;;14.98;13.98;;;;;;;;;;4994773;28;20030;-66
2022/10/21 00:46:06;;;;;;;15.80;14.80;;;;;;;;;;4994681;28;20112;-66
2022/10/21 00:48:34;;;;;;;15.55;14.55;;;;;;;;;;4993192;28;20073;-66
2022/10/21 00:51:04;;;;;;;18.23;17.10;;;;;;;;;;4996149;28;20069;-66
2022/10/21 00:53:32;;;;;;;16.60;15.52;;;;;;;;;;4992471;28;20105;-65
2022/10/21 00:56:06;;;;;;;19.58;18.17;;;;;;;;;;4994021;28;20385;-66
2022/10/21 00:58:33;;;;;;;18.63;17.55;;;;;;;;;;4994908;28;20038;-66
2022/10/21 01:01:02;;;;;;;19.05;17.67;;;;;;;;;;4992399;28;20027;-66
2022/10/21 01:03:28;;;;;;;19.30;18.13;;;;;;;;;;4996273;28;20056;-66
2022/10/21 01:05:57;;;;;;;18.52;17.23;;;;;;;;;;4991879;28;20065;-66
2022/10/21 01:08:23;;;;;;;19.88;18.67;;;;;;;;;;4993466;28;20571;-66
2022/10/21 01:10:49;;;;;;;20.42;19.20;;;;;;;;;;4993956;28;20027;-66
2022/10/21 01:13:52;;;;;;;21.38;20.08;;;;;;;;;;4994751;28;20065;-66
2022/10/21 01:16:38;;;;;;;17.65;16.65;;;;;;;;;;4996631;28;20033;-66
2022/10/21 01:19:41;;;;;;;20.00;18.60;;;;;;;;;;4991912;28;20034;-66
2022/10/21 01:22:22;;;;;;;18.02;16.92;;;;;;;;;;4992891;28;20038;-66
2022/10/21 01:25:32;;;;;;;20.40;19.20;;;;;;;;;;4990312;28;20315;-66
2022/10/21 01:28:29;;;;;;;19.47;18.27;;;;;;;;;;4984424;28;20459;-66
2022/10/21 01:31:03;;;;;;;17.27;16.17;;;;;;;;;;4961395;28;20038;-66
2022/10/21 01:33:35;;;;;;;19.15;17.98;;;;;;;;;;4995679;28;20130;-66
2022/10/21 01:36:03;;;;;;;14.38;13.48;;;;;;;;;;4992882;28;20100;-66
2022/10/21 01:39:06;;;;;;;18.25;17.05;;;;;;;;;;4996619;28;20069;-67
2022/10/21 01:41:47;;;;;;;16.05;15.00;;;;;;;;;;4990222;28;20129;-66
2022/10/21 01:44:15;;;;;;;16.13;15.13;;;;;;;;;;5011741;28;20118;-66
2022/10/21 01:46:46;;;;;;;18.17;17.08;;;;;;;;;;4994170;28;20552;-66
2022/10/21 01:49:24;;;;;;;19.55;18.20;;;;;;;;;;4993266;28;20427;-67
2022/10/21 01:51:52;;;;;;;18.27;17.17;;;;;;;;;;4993729;28;20038;-67
2022/10/21 01:54:32;;;;;;;18.20;17.10;;;;;;;;;;4991792;28;20339;-66
2022/10/21 01:56:59;;;;;;;18.67;17.58;;;;;;;;;;4993960;28;20146;-67
2022/10/21 01:59:29;;;;;;;18.85;17.63;;;;;;;;;;4995675;28;20045;-67
2022/10/21 02:01:57;;;;;;;21.27;19.75;;;;;;;;;;4994883;28;20018;-67
2022/10/21 02:04:24;;;;;;;20.23;19.00;;;;;;;;;;4995023;28;20705;-66
2022/10/21 02:06:50;;;;;;;21.00;19.70;;;;;;;;;;4996604;28;20044;-67
2022/10/21 02:09:15;;;;;;;21.92;20.52;;;;;;;;;;4994871;28;20038;-67
2022/10/21 02:11:43;;;;;;;19.63;18.50;;;;;;;;;;4999534;28;20040;-66
2022/10/21 02:14:13;;;;;;;19.75;18.45;;;;;;;;;;4994103;28;20027;-66
2022/10/21 02:16:40;;;;;;;18.33;17.23;;;;;;;;;;5005526;28;20030;-66
2022/10/21 02:19:15;;;;;;;20.60;19.02;;;;;;;;;;4996770;28;20292;-66
2022/10/21 02:21:42;;;;;;;18.27;17.17;;;;;;;;;;4998976;28;20113;-66
2022/10/21 02:24:35;;;;;;;17.77;16.67;;;;;;;;;;4998241;28;20468;-66
2022/10/21 02:27:01;;;;;;;18.83;17.67;;;;;;;;;;4997443;28;20046;-67
2022/10/21 02:29:32;;;;;;;18.63;17.38;;;;;;;;;;4996507;28;20105;-66
2022/10/21 02:32:13;;;;;;;17.35;16.35;;;;;;;;;;4996109;28;20049;-66
2022/10/21 02:35:00;;;;;;;17.42;16.33;;;;;;;;;;4998732;28;20080;-67
2022/10/21 02:37:34;;;;;;;17.17;16.02;;;;;;;;;;4999667;28;20058;-67
2022/10/21 02:40:43;;;;;;;16.52;15.50;;;;;;;;;;4997740;28;20061;-67
2022/10/21 02:43:14;;;;;;;15.35;14.40;;;;;;;;;;4937348;28;20070;-67
2022/10/21 02:45:40;;;;;;;19.83;18.42;;;;;;;;;;4992453;28;20080;-66
2022/10/21 02:48:05;;;;;;;17.27;16.25;;;;;;;;;;4996683;28;20421;-66
2022/10/21 02:50:31;;;;;;;16.65;15.57;;;;;;;;;;4996329;28;20464;-66
2022/10/21 02:52:56;;;;;;;15.20;14.25;;;;;;;;;;5009881;28;20030;-67
2022/10/21 02:55:22;;;;;;;15.02;14.13;;;;;;;;;;5011090;28;20054;-67
2022/10/21 02:57:47;;;;;;;13.90;13.00;;;;;;;;;;4997076;28;20464;-67
2022/10/21 03:00:13;;;;;;;14.32;13.43;;;;;;;;;;4996063;28;20037;-67
2022/10/21 03:02:39;;;;;;;15.05;13.98;;;;;;;;;;4996019;28;20033;-67
2022/10/21 03:05:04;;;;;;;14.90;13.98;;;;;;;;;;4995877;28;20026;-67
2022/10/21 03:07:30;;;;;;;14.68;13.77;;;;;;;;;;4993511;28;20104;-67
2022/10/21 03:09:55;;;;;;;14.88;13.93;;;;;;;;;;4994857;28;20109;-66
2022/10/21 03:12:20;;;;;;;14.52;13.50;;;;;;;;;;4996414;28;20061;-67
2022/10/21 03:14:46;;;;;;;14.73;13.82;;;;;;;;;;4999447;28;20110;-67
2022/10/21 03:17:11;;;;;;;14.50;13.60;;;;;;;;;;4996971;28;20372;-67
2022/10/21 03:19:36;;;;;;;16.65;15.65;;;;;;;;;;4995402;28;20159;-67
2022/10/21 03:22:02;;;;;;;16.02;14.88;;;;;;;;;;5000015;28;20041;-67
2022/10/21 03:24:27;;;;;;;15.43;14.43;;;;;;;;;;4993570;28;20363;-67
2022/10/21 03:26:52;;;;;;;18.70;17.52;;;;;;;;;;4996359;28;20423;-67
2022/10/21 03:29:18;;;;;;;20.30;18.70;;;;;;;;;;4996333;28;20034;-67
2022/10/21 03:31:43;;;;;;;17.23;16.13;;;;;;;;;;4995182;28;20029;-66
2022/10/21 03:34:08;;;;;;;16.45;15.35;;;;;;;;;;4995592;28;20045;-66
2022/10/21 03:36:34;;;;;;;17.10;16.00;;;;;;;;;;4995987;28;20133;-67
2022/10/21 03:38:59;;;;;;;16.85;15.80;;;;;;;;;;4992182;28;20121;-67
2022/10/21 03:41:24;;;;;;;16.40;15.40;;;;;;;;;;4995576;28;20025;-67
2022/10/21 03:43:50;;;;;;;15.00;14.10;;;;;;;;;;4994220;28;20081;-67
2022/10/21 03:46:15;;;;;;;16.63;15.55;;;;;;;;;;4999101;28;20502;-67
2022/10/21 03:48:40;;;;;;;17.42;16.20;;;;;;;;;;5010609;28;20511;-67
2022/10/21 03:51:06;;;;;;;15.50;14.48;;;;;;;;;;4994127;28;20356;-67
2022/10/21 03:53:31;;;;;;;16.15;15.15;;;;;;;;;;4994484;28;20058;-67
2022/10/21 03:55:56;;;;;;;15.68;14.55;;;;;;;;;;4998243;28;20472;-67
2022/10/21 03:58:22;;;;;;;15.32;14.23;;;;;;;;;;4999656;28;20052;-66
2022/10/21 04:00:51;;;;;;;14.88;13.88;;;;;;;;;;4997754;28;20032;-67
2022/10/21 04:03:17;;;;;;;15.68;14.57;;;;;;;;;;4997532;28;20413;-66
2022/10/21 04:05:42;;;;;;;15.90;14.80;;;;;;;;;;4992228;28;20085;-66
2022/10/21 04:08:08;;;;;;;19.90;17.95;;;;;;;;;;4997822;28;20629;-67
2022/10/21 04:10:33;;;;;;;18.73;17.17;;;;;;;;;;4996875;28;20345;-66
2022/10/21 04:12:58;;;;;;;15.02;13.98;;;;;;;;;;4994631;28;20038;-67
2022/10/21 04:15:24;;;;;;;13.25;12.45;;;;;;;;;;4996880;28;20359;-67
2022/10/21 04:17:49;;;;;;;14.85;13.85;;;;;;;;;;4996408;28;20026;-67
2022/10/21 04:20:14;;;;;;;14.02;13.13;;;;;;;;;;4996029;28;20061;-67
2022/10/21 04:22:40;;;;;;;13.55;12.65;;;;;;;;;;4995323;28;20025;-67
2022/10/21 04:25:05;;;;;;;13.68;12.75;;;;;;;;;;4995935;28;20037;-66
2022/10/21 04:27:30;;;;;;;13.45;12.45;;;;;;;;;;4994310;28;20466;-66
2022/10/21 04:29:56;;;;;;;13.02;12.20;;;;;;;;;;4996507;28;20428;-67
2022/10/21 04:32:21;;;;;;;12.70;11.85;;;;;;;;;;4997549;28;20057;-67
2022/10/21 04:34:46;;;;;;;13.65;12.80;;;;;;;;;;4996246;28;20038;-66
2022/10/21 04:37:12;;;;;;;14.73;13.77;;;;;;;;;;4996446;28;20042;-66
2022/10/21 04:39:37;;;;;;;13.63;12.73;;;;;;;;;;4995103;28;20456;-66
2022/10/21 04:42:03;;;;;;;13.85;12.95;;;;;;;;;;4995217;28;20033;-67
2022/10/21 04:44:28;;;;;;;13.65;12.65;;;;;;;;;;4998200;28;20092;-66
2022/10/21 04:46:54;;;;;;;12.57;11.77;;;;;;;;;;5009230;28;20040;-66
2022/10/21 04:49:19;;;;;;;13.30;12.50;;;;;;;;;;4994355;28;20411;-67
2022/10/21 04:51:44;;;;;;;14.10;12.60;;;;;;;;;;4994121;28;20365;-67
2022/10/21 04:54:12;;;;;;;13.80;12.90;;;;;;;;;;4997783;28;20058;-67
2022/10/21 04:56:39;;;;;;;13.75;12.75;;;;;;;;;;4997816;28;20026;-67
2022/10/21 04:59:04;;;;;;;12.75;11.80;;;;;;;;;;4992943;28;20460;-66
2022/10/21 05:01:29;;;;;;;12.82;11.98;;;;;;;;;;4995917;28;20065;-66
2022/10/21 05:03:55;;;;;;;12.90;12.02;;;;;;;;;;4991246;28;20034;-67
2022/10/21 05:06:20;;;;;;;13.20;12.25;;;;;;;;;;4996569;28;20033;-67
2022/10/21 05:08:45;;;;;;;12.40;11.60;;;;;;;;;;4994287;28;20488;-67
2022/10/21 05:11:11;;;;;;;11.80;11.10;;;;;;;;;;4994947;28;20290;-67
2022/10/21 05:13:36;;;;;;;12.32;11.52;;;;;;;;;;4995854;28;20124;-67
2022/10/21 05:16:02;;;;;;;13.82;12.93;;;;;;;;;;4996940;28;20624;-67
2022/10/21 05:18:29;;;;;;;12.77;11.82;;;;;;;;;;4993646;28;20048;-67
2022/10/21 05:20:55;;;;;;;14.32;13.32;;;;;;;;;;4996190;28;20038;-67
2022/10/21 05:23:21;;;;;;;12.93;12.05;;;;;;;;;;4996242;28;20014;-67
2022/10/21 05:25:47;;;;;;;12.38;11.57;;;;;;;;;;4993492;28;20026;-68
2022/10/21 05:28:13;;;;;;;13.30;12.38;;;;;;;;;;4996039;28;20052;-67
2022/10/21 05:30:38;;;;;;;15.63;14.63;;;;;;;;;;4994978;28;20394;-68
2022/10/21 05:33:04;;;;;;;13.55;12.65;;;;;;;;;;4997743;28;20029;-68
2022/10/21 05:35:29;;;;;;;13.25;12.45;;;;;;;;;;4996922;28;20034;-67
2022/10/21 05:37:55;;;;;;;14.23;13.35;;;;;;;;;;4995959;28;20348;-67
2022/10/21 05:40:20;;;;;;;15.02;13.95;;;;;;;;;;5000509;28;20044;-68
2022/10/21 05:42:46;;;;;;;15.18;14.07;;;;;;;;;;4999801;28;20113;-67
2022/10/21 05:45:11;;;;;;;14.85;13.85;;;;;;;;;;5000539;28;20097;-67
2022/10/21 05:47:39;;;;;;;14.15;13.18;;;;;;;;;;5000128;28;20555;-68
2022/10/21 05:50:06;;;;;;;14.15;13.25;;;;;;;;;;4999159;28;20142;-67
2022/10/21 05:52:31;;;;;;;13.40;12.60;;;;;;;;;;4999392;28;20057;-67
2022/10/21 05:54:56;;;;;;;16.23;15.23;;;;;;;;;;4999673;28;20034;-67
2022/10/21 05:57:22;;;;;;;15.80;14.80;;;;;;;;;;4997411;28;20038;-67
2022/10/21 05:59:47;;;;;;;15.30;14.40;;;;;;;;;;4999012;28;20038;-68
2022/10/21 06:02:13;;;;;;;16.63;15.52;;;;;;;;;;4994939;28;20040;-67
2022/10/21 06:04:38;;;;;;;18.30;17.13;;;;;;;;;;4997468;28;20105;-67
2022/10/21 06:07:03;;;;;;;16.42;15.38;;;;;;;;;;4998365;28;20038;-67
2022/10/21 06:09:29;;;;;;;16.70;15.70;;;;;;;;;;5004992;28;20512;-67
2022/10/21 06:11:56;;;;;;;17.15;16.15;;;;;;;;;;4996786;28;20413;-67
2022/10/21 06:14:22;;;;;;;18.02;16.92;;;;;;;;;;4996836;28;20022;-67
2022/10/21 06:16:47;;;;;;;21.40;20.05;;;;;;;;;;4998282;28;20030;-67
2022/10/21 06:19:12;;;;;;;17.73;16.63;;;;;;;;;;4999523;28;20045;-68
2022/10/21 06:21:38;;;;;;;19.38;18.10;;;;;;;;;;4997999;28;20029;-72
2022/10/21 06:24:03;;;;;;;19.83;18.42;;;;;;;;;;4999041;28;20096;-68
2022/10/21 06:26:28;;;;;;;17.35;16.25;;;;;;;;;;4999687;28;20116;-68
2022/10/21 06:28:54;;;;;;;42.33;37.10;;;;;;;;;;4996779;28;20021;-68
2022/10/21 06:31:20;;;;;;;23.48;21.85;;;;;;;;;;4998848;28;20483;-69
2022/10/21 06:33:46;;;;;;;18.98;17.63;;;;;;;;;;4995813;28;20037;-68
2022/10/21 06:36:12;;;;;;;16.55;15.45;;;;;;;;;;4996542;28;20034;-68
2022/10/21 06:38:37;;;;;;;17.23;16.15;;;;;;;;;;4999705;28;20029;-68
2022/10/21 06:41:05;;;;;;;16.55;15.45;;;;;;;;;;4998547;28;20386;-69
2022/10/21 06:43:31;;;;;;;20.98;15.85;;;;;;;;;;4999915;28;20026;-68
2022/10/21 06:46:04;;;;;;;21.48;19.42;;;;;;;;;;4997227;28;20026;-69
2022/10/21 06:48:30;;;;;;;20.60;19.02;;;;;;;;;;4997716;28;20092;-67
2022/10/21 06:51:19;;;;;;;18.02;16.92;;;;;;;;;;4999985;28;20030;-66
2022/10/21 06:53:45;;;;;;;16.48;15.43;;;;;;;;;;4999383;28;20065;-66
2022/10/21 06:56:16;;;;;;;16.75;15.75;;;;;;;;;;4996945;28;20042;-66
2022/10/21 06:58:45;;;;;;;15.88;14.95;;;;;;;;;;4999282;28;20026;-66
2022/10/21 07:01:22;;;;;;;16.63;15.63;;;;;;;;;;4999997;28;20457;-66
2022/10/21 07:03:48;;;;;;;17.55;16.25;;;;;;;;;;5002933;28;20044;-65
2022/10/21 07:06:14;;;;;;;18.30;17.20;;;;;;;;;;4999615;28;20025;-66
2022/10/21 07:08:40;;;;;;;18.17;17.08;;;;;;;;;;4996028;28;20026;-66
2022/10/21 07:11:06;;;;;;;17.55;16.55;;;;;;;;;;4994388;28;20507;-66
2022/10/21 07:13:33;;;;;;;17.67;16.58;;;;;;;;;;4993963;28;20034;-66
2022/10/21 07:16:02;;;;;;;17.42;16.33;;;;;;;;;;4996625;28;20565;-66
2022/10/21 07:18:28;;;;;;;18.27;17.05;;;;;;;;;;4996418;28;20041;-66
2022/10/21 07:20:53;;;;;;;18.75;17.65;;;;;;;;;;4995722;28;20113;-66
2022/10/21 07:23:19;;;;;;;20.70;19.40;;;;;;;;;;4995497;28;20125;-65
2022/10/21 07:25:44;;;;;;;21.65;18.60;;;;;;;;;;4995590;28;20026;-65
2022/10/21 07:28:09;;;;;;;19.90;18.70;;;;;;;;;;4997853;28;20025;-65
2022/10/21 07:30:40;;;;;;;19.45;18.35;;;;;;;;;;4997403;28;20542;-65
2022/10/21 07:33:05;;;;;;;19.20;17.98;;;;;;;;;;4998382;28;20049;-65
2022/10/21 07:35:30;;;;;;;20.67;19.48;;;;;;;;;;4993077;28;20056;-65
2022/10/21 07:37:56;;;;;;;20.75;19.55;;;;;;;;;;4995748;28;20092;-65
2022/10/21 07:40:21;;;;;;;22.73;21.05;;;;;;;;;;4994193;28;20035;-65
2022/10/21 07:42:46;;;;;;;22.38;21.08;;;;;;;;;;4991854;28;20336;-65
2022/10/21 07:45:12;;;;;;;23.38;21.77;;;;;;;;;;4993960;28;20589;-65
2022/10/21 07:47:37;;;;;;;21.90;20.60;;;;;;;;;;4996906;28;20085;-65
2022/10/21 07:50:03;;;;;;;20.00;18.90;;;;;;;;;;4993499;28;20038;-65
2022/10/21 07:52:28;;;;;;;21.25;19.63;;;;;;;;;;4994333;28;20042;-65
2022/10/21 07:54:53;;;;;;;18.42;17.30;;;;;;;;;;4995603;28;20046;-65
2022/10/21 07:57:19;;;;;;;21.67;20.48;;;;;;;;;;4993011;28;20396;-65
2022/10/21 07:59:44;;;;;;;20.27;18.95;;;;;;;;;;4994931;28;20141;-65
2022/10/21 08:02:12;;;;;;;18.05;16.85;;;;;;;;;;5002686;28;20030;-64
2022/10/21 08:04:38;;;;;;;18.08;17.02;;;;;;;;;;4996532;28;20438;-65
2022/10/21 08:07:04;;;;;;;19.10;17.90;;;;;;;;;;5002565;28;20033;-65
2022/10/21 08:09:29;;;;;;;18.77;17.67;;;;;;;;;;4998899;28;20363;-65
2022/10/21 08:11:55;;;;;;;20.80;19.55;;;;;;;;;;4996196;28;20045;-66
2022/10/21 08:14:21;;;;;;;20.88;19.67;;;;;;;;;;4997635;28;20022;-67
2022/10/21 08:16:51;;;;;;;18.58;17.48;;;;;;;;;;4998585;28;20038;-65
2022/10/21 08:19:19;;;;;;;19.05;17.92;;;;;;;;;;4995771;28;20325;-62
2022/10/21 08:21:44;;;;;;;18.10;17.02;;;;;;;;;;4996344;28;20029;-63
2022/10/21 08:24:09;;;;;;;17.45;16.45;;;;;;;;;;4995667;28;20420;-64
2022/10/21 08:26:35;;;;;;;19.70;18.40;;;;;;;;;;4994850;28;20045;-64
2022/10/21 08:29:03;;;;;;;18.70;17.60;;;;;;;;;;4996793;28;20042;-65
2022/10/21 08:31:29;;;;;;;18.90;17.80;;;;;;;;;;4997781;28;20433;-65
2022/10/21 08:33:55;;;;;;;17.55;16.48;;;;;;;;;;5000373;28;20128;-66
2022/10/21 08:36:23;;;;;;;17.92;16.92;;;;;;;;;;5012964;28;20121;-65
2022/10/21 08:38:49;;;;;;;18.63;17.27;;;;;;;;;;4996295;28;20026;-65
2022/10/21 08:41:28;;;;;;;15.57;14.68;;;;;;;;;;4996030;28;20038;-65
2022/10/21 08:43:57;;;;;;;17.15;16.05;;;;;;;;;;4995857;28;20112;-65
2022/10/21 08:46:32;;;;;;;16.55;15.48;;;;;;;;;;4996471;28;20153;-64
2022/10/21 08:49:05;;;;;;;20.52;19.33;;;;;;;;;;4993682;28;20045;-65
2022/10/21 08:51:35;;;;;;;17.42;16.35;;;;;;;;;;4995879;28;20026;-65
2022/10/21 08:54:10;;;;;;;16.35;15.35;;;;;;;;;;4992393;28;20414;-66
2022/10/21 08:56:35;;;;;;;17.02;15.98;;;;;;;;;;4997313;28;20042;-68
2022/10/21 08:59:01;;;;;;;15.52;14.63;;;;;;;;;;4996331;28;20026;-68
2022/10/21 09:01:34;;;;;;;17.52;16.38;;;;;;;;;;5000597;28;20034;-68
2022/10/21 09:04:05;;;;;;;17.13;16.02;;;;;;;;;;4993815;28;20041;-66
2022/10/21 09:06:43;;;;;;;16.88;15.77;;;;;;;;;;4993996;28;20057;-68
2022/10/21 09:09:19;;;;;;;17.00;15.95;;;;;;;;;;4995406;28;20042;-67
2022/10/21 09:11:57;;;;;;;17.25;16.25;;;;;;;;;;4994787;28;20460;-67
2022/10/21 09:14:55;;;;;;;15.77;14.77;;;;;;;;;;5005159;28;20030;-67
2022/10/21 09:17:45;;;;;;;15.52;14.60;;;;;;;;;;4999627;28;20480;-67
2022/10/21 09:20:26;;;;;;;15.82;14.93;;;;;;;;;;5000004;28;20452;-70
2022/10/21 09:23:30;;;;;;;17.45;16.40;;;;;;;;;;4997464;28;20038;-67
2022/10/21 09:26:02;;;;;;;15.25;14.35;;;;;;;;;;4993931;28;20444;-68
2022/10/21 09:28:29;;;;;;;17.88;16.75;;;;;;;;;;5001484;28;20037;-67
2022/10/21 09:30:57;;;;;;;16.13;15.02;;;;;;;;;;5015885;28;20408;-69
2022/10/21 09:33:29;;;;;;;17.88;16.75;;;;;;;;;;4996668;28;20647;-67
2022/10/21 09:36:02;;;;;;;16.40;15.50;;;;;;;;;;5016195;28;20092;-67
2022/10/21 09:38:58;;;;;;;17.92;16.83;;;;;;;;;;4998555;28;20180;-67
2022/10/21 09:41:31;;;;;;;15.75;14.85;;;;;;;;;;4998005;28;20042;-68
2022/10/21 09:43:56;;;;;;;17.52;16.42;;;;;;;;;;4996299;28;20461;-68
2022/10/21 09:46:22;;;;;;;17.27;16.23;;;;;;;;;;5012975;28;20049;-68
2022/10/21 09:48:51;;;;;;;16.75;15.75;;;;;;;;;;4995963;28;20030;-68
2022/10/21 09:51:20;;;;;;;19.25;17.88;;;;;;;;;;4997833;28;20045;-67
2022/10/21 09:53:52;;;;;;;18.60;17.58;;;;;;;;;;4999214;28;20130;-68
2022/10/21 09:56:26;;;;;;;17.05;16.05;;;;;;;;;;4995301;28;20054;-68
2022/10/21 09:59:02;;;;;;;18.75;17.65;;;;;;;;;;4994888;28;20099;-69
2022/10/21 10:01:28;;;;;;;16.08;15.15;;;;;;;;;;4994687;28;20821;-68
2022/10/21 10:03:54;;;;;;;17.05;16.05;;;;;;;;;;5000426;28;20129;-69
2022/10/21 10:06:29;;;;;;;16.50;15.55;;;;;;;;;;4999476;28;20128;-68
2022/10/21 10:09:35;;;;;;;17.00;16.00;;;;;;;;;;4995151;28;20042;-67
2022/10/21 10:12:21;;;;;;;15.73;14.82;;;;;;;;;;4986896;28;20041;-67
2022/10/21 10:14:47;;;;;;;16.42;15.43;;;;;;;;;;4999909;28;20014;-67
2022/10/21 10:17:34;;;;;;;16.23;15.23;;;;;;;;;;4997988;28;20026;-67
2022/10/21 10:20:02;;;;;;;17.60;16.60;;;;;;;;;;4997459;28;20030;-68
2022/10/21 10:22:29;;;;;;;16.15;15.20;;;;;;;;;;5000333;28;20171;-67
2022/10/21 10:25:07;;;;;;;17.02;16.02;;;;;;;;;;4998509;28;20030;-67
2022/10/21 10:27:33;;;;;;;16.98;15.98;;;;;;;;;;5001490;28;20061;-66
2022/10/21 10:29:59;;;;;;;19.65;18.25;;;;;;;;;;4998011;28;20107;-66
2022/10/21 10:32:30;;;;;;;18.90;17.83;;;;;;;;;;5001810;28;20595;-67
2022/10/21 10:34:59;;;;;;;20.30;19.10;;;;;;;;;;5000416;28;20416;-68
2022/10/21 10:37:32;;;;;;;19.35;18.25;;;;;;;;;;4998492;28;20552;-66
2022/10/21 10:39:59;;;;;;;18.77;17.77;;;;;;;;;;4996347;28;20538;-66
2022/10/21 10:42:31;;;;;;;18.90;17.80;;;;;;;;;;5000257;28;20026;-67
2022/10/21 10:45:01;;;;;;;17.95;16.88;;;;;;;;;;5000244;28;20060;-67
2022/10/21 10:47:36;;;;;;;18.42;17.40;;;;;;;;;;5001469;28;20468;-67
2022/10/21 10:50:02;;;;;;;18.00;17.00;;;;;;;;;;5000663;28;20395;-66
2022/10/21 10:52:28;;;;;;;17.80;16.75;;;;;;;;;;4996881;28;20125;-67
2022/10/21 10:55:13;;;;;;;19.77;18.67;;;;;;;;;;4995869;28;20110;-66
2022/10/21 10:57:41;;;;;;;19.80;18.60;;;;;;;;;;4999327;28;20038;-66
2022/10/21 11:00:22;;;;;;;18.80;17.80;;;;;;;;;;5000532;28;20030;-66
2022/10/21 11:03:00;;;;;;;18.20;17.17;;;;;;;;;;4998462;28;20558;-66
2022/10/21 11:05:41;;;;;;;17.73;16.73;;;;;;;;;;4996290;28;20053;-66
2022/10/21 11:08:12;;;;;;;18.50;17.50;;;;;;;;;;4999533;28;20091;-67
2022/10/21 11:10:43;;;;;;;18.90;17.80;;;;;;;;;;5002062;28;20124;-67
2022/10/21 11:13:13;;;;;;;18.55;17.55;;;;;;;;;;5001914;28;20360;-69
2022/10/21 11:15:56;;;;;;;18.08;17.08;;;;;;;;;;4998806;28;20030;-68
2022/10/21 11:18:35;;;;;;;18.15;17.10;;;;;;;;;;5000345;28;20048;-67
2022/10/21 11:21:06;;;;;;;17.88;16.88;;;;;;;;;;5000076;28;20045;-67
2022/10/21 11:23:31;;;;;;;19.00;17.90;;;;;;;;;;4999383;28;20042;-67
2022/10/21 11:26:10;;;;;;;19.58;18.48;;;;;;;;;;4997474;28;20092;-67
2022/10/21 11:28:50;;;;;;;18.75;17.75;;;;;;;;;;4999699;28;20042;-67
2022/10/21 11:31:30;;;;;;;19.37;18.27;;;;;;;;;;4996835;28;20081;-66
2022/10/21 11:34:07;;;;;;;19.67;18.58;;;;;;;;;;4998353;28;20038;-67
2022/10/21 11:36:50;;;;;;;17.20;16.20;;;;;;;;;;4996509;28;20030;-68
2022/10/21 11:39:48;;;;;;;18.50;17.50;;;;;;;;;;4999249;28;20128;-68
2022/10/21 11:42:22;;;;;;;19.10;18.00;;;;;;;;;;4998041;28;20236;-67
2022/10/21 11:45:11;;;;;;;18.17;17.17;;;;;;;;;;4998748;28;20049;-68
2022/10/21 11:48:01;;;;;;;18.08;17.08;;;;;;;;;;4991739;28;20088;-66
2022/10/21 11:50:38;;;;;;;17.30;16.30;;;;;;;;;;4996914;28;20518;-66
2022/10/21 11:53:38;;;;;;;16.58;15.68;;;;;;;;;;4994841;28;20424;-67
2022/10/21 11:56:18;;;;;;;16.58;15.68;;;;;;;;;;4995113;28;20034;-66
2022/10/21 11:58:43;;;;;;;15.15;14.30;;;;;;;;;;4995541;28;20320;-67
2022/10/21 12:01:13;;;;;;;15.55;14.65;;;;;;;;;;4994748;28;20596;-68
2022/10/21 12:03:57;;;;;;;14.88;14.02;;;;;;;;;;4994964;28;20118;-68
2022/10/21 12:06:37;;;;;;;14.20;13.40;;;;;;;;;;4994711;28;20030;-67
2022/10/21 12:09:14;;;;;;;11.65;10.95;;;;;;;;;;4995498;28;20026;-67
2022/10/21 12:11:49;;;;;;;11.35;10.57;;;;;;;;;;4996363;28;20044;-67
2022/10/21 12:14:25;;;;;;;21.15;12.57;;;;;;;;;;4997086;28;20053;-69
2022/10/21 12:16:52;;;;;;;10.98;10.30;;;;;;;;;;4996287;28;20088;-70
2022/10/21 12:19:18;;;;;;;10.02;9.43;;;;;;;;;;4996256;28;20464;-69
2022/10/21 12:21:44;;;;;;;10.20;9.20;;;;;;;;;;4997535;28;20049;-69
2022/10/21 12:24:09;;;;;;;10.13;9.52;;;;;;;;;;4994639;28;20469;-69
2022/10/21 12:27:12;;;;;;;12.18;11.48;;;;;;;;;;4995688;28;20049;-68
2022/10/21 12:29:50;;;;;;;15.63;14.75;;;;;;;;;;4994337;28;20037;-69
2022/10/21 12:32:27;;;;;;;15.77;14.88;;;;;;;;;;4996991;28;20111;-69
2022/10/21 12:34:53;;;;;;;15.82;14.93;;;;;;;;;;4997625;28;20052;-69
2022/10/21 12:37:40;;;;;;;13.70;12.90;;;;;;;;;;4994815;28;20030;-69
2022/10/21 12:40:36;;;;;;;13.65;12.85;;;;;;;;;;4995197;28;20044;-68
2022/10/21 12:43:18;;;;;;;10.75;10.05;;;;;;;;;;4983732;28;20037;-68
2022/10/21 12:45:46;;;;;;;9.00;8.40;;;;;;;;;;4992271;28;20108;-67
2022/10/21 12:48:38;;;;;;;11.20;10.50;;;;;;;;;;4997867;28;20641;-68
2022/10/21 12:51:07;;;;;;;12.30;11.57;;;;;;;;;;4996229;28;20041;-68
2022/10/21 12:53:45;;;;;;;12.77;11.98;;;;;;;;;;4992788;28;20037;-68
2022/10/21 12:56:28;;;;;;;13.13;12.32;;;;;;;;;;5011583;28;20498;-69
2022/10/21 12:58:58;;;;;;;13.63;12.82;;;;;;;;;;5009028;28;20045;-69
2022/10/21 13:01:38;;;;;;;16.90;16.00;;;;;;;;;;4993105;28;20349;-69
2022/10/21 13:04:24;;;;;;;17.38;16.38;;;;;;;;;;5010951;28;20801;-68
2022/10/21 13:06:55;;;;;;;16.00;14.90;;;;;;;;;;4997367;28;20052;-69
2022/10/21 13:09:39;;;;;;;;;;;;;;;;;;4997701;28;20038;-68
2022/10/21 13:12:07;;;;;;;13.55;12.75;;;;;;;;;;4992800;28;20366;-69
2022/10/21 13:14:47;;;;;;;13.57;12.77;;;;;;;;;;4996760;28;20144;-69
2022/10/21 13:17:48;;;;;;;15.00;14.10;;;;;;;;;;4993386;28;20363;-69
2022/10/21 13:20:13;;;;;;;;;;;;;;;;;;4991094;28;20042;-71
2022/10/21 13:22:41;;;;;;;12.10;11.40;;;;;;;;;;4994114;28;20339;-69
2022/10/21 13:25:15;;;;;;;13.88;13.07;;;;;;;;;;4991572;28;20133;-69
2022/10/21 13:27:43;;;;;;;12.05;11.35;;;;;;;;;;4994017;28;20050;-69
2022/10/21 13:30:29;;;;;;;12.85;12.07;;;;;;;;;;4995043;28;20034;-69
2022/10/21 13:33:00;;;;;;;14.27;13.48;;;;;;;;;;4994511;28;20092;-68
2022/10/21 13:35:47;;;;;;;13.43;12.63;;;;;;;;;;4995691;28;20491;-70
2022/10/21 13:38:32;;;;;;;13.85;12.85;;;;;;;;;;4996464;28;20717;-70
2022/10/21 13:41:03;;;;;;;14.55;13.65;;;;;;;;;;4996462;28;20117;-69
2022/10/21 13:43:44;;;;;;;15.55;14.65;;;;;;;;;;4995529;28;20467;-69
2022/10/21 13:46:17;;;;;;;13.48;12.68;;;;;;;;;;4994480;28;20042;-69
2022/10/21 13:48:44;;;;;;;14.07;13.27;;;;;;;;;;4995620;28;20423;-69
2022/10/21 13:51:24;;;;;;;13.82;13.02;;;;;;;;;;4993802;28;20519;-69
2022/10/21 13:53:56;;;;;;;15.52;14.63;;;;;;;;;;4991791;28;20030;-69
2022/10/21 13:56:27;;;;;;;15.20;14.32;;;;;;;;;;4993921;28;20030;-70
2022/10/21 13:58:52;;;;;;;14.68;13.77;;;;;;;;;;4995509;28;20430;-69
2022/10/21 14:01:24;;;;;;;15.25;14.40;;;;;;;;;;5000560;28;20045;-69
2022/10/21 14:03:51;;;;;;;15.50;14.57;;;;;;;;;;4997775;28;20064;-69
2022/10/21 14:06:29;;;;;;;16.00;15.10;;;;;;;;;;4998455;28;20693;-69
2022/10/21 14:08:55;;;;;;;16.90;15.98;;;;;;;;;;4997877;28;20041;-69
2022/10/21 14:11:28;;;;;;;18.20;17.10;;;;;;;;;;4997779;28;20113;-70
2022/10/21 14:13:56;;;;;;;17.83;16.85;;;;;;;;;;4997623;28;20735;-70
2022/10/21 14:16:32;;;;;;;19.60;18.52;;;;;;;;;;4998632;28;20041;-68
2022/10/21 14:19:13;;;;;;;19.70;18.60;;;;;;;;;;4998912;28;20118;-69
2022/10/21 14:21:43;;;;;;;20.25;19.15;;;;;;;;;;4998577;28;20523;-70
2022/10/21 14:24:30;;;;;;;20.73;19.63;;;;;;;;;;4996977;28;20058;-69
2022/10/21 14:26:56;;;;;;;19.48;18.38;;;;;;;;;;4996839;28;20045;-68
2022/10/21 14:29:24;;;;;;;20.25;18.92;;;;;;;;;;4996795;28;20045;-69
2022/10/21 14:31:50;;;;;;;20.48;19.38;;;;;;;;;;4998537;28;20049;-70
2022/10/21 14:34:30;;;;;;;21.10;19.83;;;;;;;;;;4998744;28;20065;-70
2022/10/21 14:37:05;;;;;;;18.52;17.50;;;;;;;;;;4997552;28;20030;-69
2022/10/21 14:39:32;;;;;;;19.13;18.08;;;;;;;;;;4997907;28;20420;-69
2022/10/21 14:42:07;;;;;;;19.48;18.38;;;;;;;;;;4996387;28;20484;-69